createdAt,value
2022-10-15T04:30:33.267Z,14.07
2022-10-15T04:31:33.215Z,14.00
2022-10-15T04:32:33.238Z,13.97
2022-10-15T04:33:33.192Z,13.96
2022-10-15T04:34:33.187Z,13.95
2022-10-15T04:35:33.222Z,13.92
2022-10-15T04:36:33.164Z,14.00
2022-10-15T04:37:33.158Z,13.96
2022-10-15T04:38:33.165Z,13.95
2022-10-15T04:39:33.132Z,13.92
2022-10-15T04:40:33.156Z,13.95
2022-10-15T04:41:33.111Z,13.92
2022-10-15T04:42:33.103Z,14.02
2022-10-15T04:43:33.092Z,13.99
2022-10-15T04:44:33.079Z,13.92
2022-10-15T04:45:33.087Z,13.91
2022-10-15T04:46:33.092Z,14.02
2022-10-15T04:47:33.050Z,14.00
2022-10-15T04:48:33.058Z,14.02
2022-10-15T04:49:33.027Z,13.99
2022-10-15T04:50:33.012Z,13.96
2022-10-15T04:51:33.009Z,14.02
2022-10-15T04:52:33.034Z,14.06
2022-10-15T04:53:32.980Z,13.95
2022-10-15T04:54:32.971Z,13.96
2022-10-15T04:55:32.957Z,14.06
2022-10-15T04:56:32.950Z,14.00
2022-10-15T04:57:32.953Z,14.04
2022-10-15T04:58:32.955Z,13.99
2022-10-15T04:59:32.923Z,14.00
2022-10-15T05:00:32.916Z,13.96
2022-10-15T05:01:32.890Z,14.04
2022-10-15T05:02:33.055Z,14.09
2022-10-15T05:04:32.900Z,14.00
2022-10-15T05:05:32.855Z,14.06
2022-10-15T05:06:32.833Z,14.10
2022-10-15T05:07:32.826Z,14.04
2022-10-15T05:08:32.806Z,14.15
2022-10-15T05:09:36.737Z,14.03
2022-10-15T05:10:32.835Z,14.07
2022-10-15T05:11:32.777Z,14.03
2022-10-15T05:12:32.827Z,14.10
2022-10-15T05:13:32.753Z,14.10
2022-10-15T05:14:32.749Z,14.07
2022-10-15T05:15:32.754Z,14.04
2022-10-15T05:16:32.773Z,14.02
2022-10-15T05:17:32.716Z,14.02
2022-10-15T05:18:32.720Z,14.06
2022-10-15T05:19:32.718Z,14.10
2022-10-15T05:20:32.682Z,14.02
2022-10-15T05:21:32.666Z,14.07
2022-10-15T05:22:32.706Z,14.10
2022-10-15T05:23:32.646Z,14.03
2022-10-15T05:24:32.633Z,14.07
2022-10-15T05:25:32.626Z,14.10
2022-10-15T05:26:32.619Z,14.06
2022-10-15T05:27:32.623Z,14.07
2022-10-15T05:28:32.638Z,14.03
2022-10-15T05:29:32.579Z,14.04
2022-10-15T05:30:32.563Z,14.09
2022-10-15T05:31:32.555Z,14.07
2022-10-15T05:32:32.565Z,14.10
2022-10-15T05:33:32.554Z,14.09
2022-10-15T05:34:32.545Z,14.04
2022-10-15T05:35:32.544Z,14.14
2022-10-15T05:36:32.502Z,14.06
2022-10-15T05:37:32.507Z,14.03
2022-10-15T05:38:32.475Z,14.07
2022-10-15T05:39:32.486Z,14.00
2022-10-15T05:40:32.476Z,13.96
2022-10-15T05:41:32.441Z,14.10
2022-10-15T05:42:32.437Z,14.03
2022-10-15T05:43:35.005Z,14.02
2022-10-15T05:44:33.428Z,13.96
2022-10-15T05:45:32.397Z,13.92
2022-10-15T05:46:32.394Z,13.84
2022-10-15T05:47:32.371Z,13.84
2022-10-15T05:48:32.363Z,13.85
2022-10-15T05:49:32.373Z,13.85
2022-10-15T05:50:32.357Z,13.84
2022-10-15T05:51:32.328Z,13.85
2022-10-15T05:52:32.328Z,13.84
2022-10-15T05:53:32.312Z,13.79
2022-10-15T05:54:32.314Z,13.84
2022-10-15T05:55:32.286Z,13.81
2022-10-15T05:56:32.279Z,13.82
2022-10-15T05:57:32.259Z,13.78
2022-10-15T05:58:34.909Z,13.75
2022-10-15T05:59:33.243Z,13.81
2022-10-15T06:00:32.251Z,13.75
2022-10-15T06:01:32.220Z,13.71
2022-10-15T06:02:32.397Z,13.71
2022-10-15T06:03:32.205Z,13.63
2022-10-15T06:04:35.483Z,13.69
2022-10-15T06:05:32.203Z,13.75
2022-10-15T06:06:32.201Z,13.73
2022-10-15T06:07:32.151Z,13.71
2022-10-15T06:08:32.140Z,13.64
2022-10-15T06:09:32.132Z,13.70
2022-10-15T06:10:32.171Z,13.63
2022-10-15T06:11:32.099Z,13.55
2022-10-15T06:12:32.121Z,13.59
2022-10-15T06:13:32.098Z,13.60
2022-10-15T06:14:32.073Z,13.55
2022-10-15T06:15:32.064Z,13.46
2022-10-15T06:16:32.071Z,13.63
2022-10-15T06:17:32.058Z,13.51
2022-10-15T06:18:32.024Z,13.52
2022-10-15T06:19:32.010Z,13.54
2022-10-15T06:20:32.009Z,13.51
2022-10-15T06:21:32.000Z,13.54
2022-10-15T06:22:32.061Z,13.54
2022-10-15T06:23:31.969Z,13.55
2022-10-15T06:24:31.982Z,13.52
2022-10-15T06:25:31.968Z,13.54
2022-10-15T06:26:31.942Z,13.55
2022-10-15T06:27:31.925Z,13.55
2022-10-15T06:28:32.002Z,13.45
2022-10-15T06:29:31.905Z,13.45
2022-10-15T06:30:31.918Z,13.46
2022-10-15T06:31:31.878Z,13.52
2022-10-15T06:32:31.870Z,13.44
2022-10-15T06:33:31.866Z,13.57
2022-10-15T06:34:31.871Z,13.51
2022-10-15T06:35:31.881Z,13.57
2022-10-15T06:36:31.828Z,13.55
2022-10-15T06:37:31.819Z,13.55
2022-10-15T06:38:31.818Z,13.69
2022-10-15T06:39:31.787Z,13.69
2022-10-15T06:40:31.783Z,13.66
2022-10-15T06:41:31.822Z,13.75
2022-10-15T06:42:31.754Z,13.73
2022-10-15T06:43:34.839Z,13.84
2022-10-15T06:44:31.728Z,13.82
2022-10-15T06:45:31.733Z,13.78
2022-10-15T06:46:31.737Z,13.81
2022-10-15T06:47:31.772Z,13.84
2022-10-15T06:48:31.689Z,13.81
2022-10-15T06:49:31.683Z,13.89
2022-10-15T06:50:31.669Z,13.78
2022-10-15T06:51:31.652Z,13.92
2022-10-15T06:52:31.655Z,13.88
2022-10-15T06:53:31.674Z,14.00
2022-10-15T06:54:31.632Z,13.99
2022-10-15T06:55:31.621Z,14.00
2022-10-15T06:56:31.614Z,14.04
2022-10-15T06:57:31.593Z,14.04
2022-10-15T06:58:31.568Z,14.18
2022-10-15T06:59:31.629Z,14.04
2022-10-15T07:00:31.635Z,14.15
2022-10-15T07:01:31.561Z,14.15
2022-10-15T07:02:31.549Z,14.20
2022-10-15T07:03:33.854Z,14.20
2022-10-15T07:04:31.501Z,14.24
2022-10-15T07:05:31.499Z,14.32
2022-10-15T07:06:31.548Z,14.28
2022-10-15T07:07:31.466Z,14.36
2022-10-15T07:08:31.460Z,14.36
2022-10-15T07:09:31.469Z,14.35
2022-10-15T07:10:31.474Z,14.35
2022-10-15T07:11:31.431Z,14.39
2022-10-15T07:12:31.417Z,14.36
2022-10-15T07:13:31.403Z,14.35
2022-10-15T07:14:31.409Z,14.37
2022-10-15T07:15:31.398Z,14.37
2022-10-15T07:16:31.378Z,14.46
2022-10-15T07:17:31.374Z,14.50
2022-10-15T07:18:31.368Z,14.52
2022-10-15T07:19:31.336Z,14.52
2022-10-15T07:20:31.345Z,14.54
2022-10-15T07:21:31.360Z,14.50
2022-10-15T07:22:31.300Z,14.60
2022-10-15T07:23:31.285Z,14.62
2022-10-15T07:24:31.300Z,14.60
2022-10-15T07:25:31.291Z,14.68
2022-10-15T07:26:31.270Z,14.73
2022-10-15T07:27:31.278Z,14.78
2022-10-15T07:28:31.346Z,14.75
2022-10-15T07:29:31.227Z,14.78
2022-10-15T07:30:31.220Z,14.78
2022-10-15T07:31:31.281Z,14.75
2022-10-15T07:32:31.210Z,14.72
2022-10-15T07:33:31.217Z,14.73
2022-10-15T07:34:31.166Z,14.80
2022-10-15T07:35:31.159Z,14.78
2022-10-15T07:36:31.151Z,14.81
2022-10-15T07:37:31.134Z,14.83
2022-10-15T07:38:31.149Z,14.91
2022-10-15T07:39:31.135Z,14.92
2022-10-15T07:40:31.122Z,14.86
2022-10-15T07:41:31.101Z,14.96
2022-10-15T07:42:31.181Z,14.99
2022-10-15T07:43:31.072Z,15.01
2022-10-15T07:44:31.062Z,14.98
2022-10-15T07:45:31.136Z,14.92
2022-10-15T07:46:31.033Z,14.98
2022-10-15T07:47:31.027Z,15.02
2022-10-15T07:48:31.024Z,15.03
2022-10-15T07:49:31.011Z,14.99
2022-10-15T07:50:34.276Z,14.99
2022-10-15T07:51:32.014Z,14.99
2022-10-15T07:52:30.973Z,15.01
2022-10-15T07:53:30.968Z,14.89
2022-10-15T07:54:30.956Z,15.07
2022-10-15T07:55:30.940Z,14.99
2022-10-15T07:56:30.987Z,14.95
2022-10-15T07:57:30.937Z,15.09
2022-10-15T07:58:30.967Z,14.99
2022-10-15T07:59:30.903Z,15.01
2022-10-15T08:00:30.890Z,15.03
2022-10-15T08:01:30.874Z,15.10
2022-10-15T08:02:30.890Z,15.09
2022-10-15T08:03:30.884Z,15.06
2022-10-15T08:04:30.840Z,15.06
2022-10-15T08:05:30.831Z,15.11
2022-10-15T08:06:30.847Z,15.07
2022-10-15T08:07:30.814Z,15.09
2022-10-15T08:08:30.802Z,15.10
2022-10-15T08:09:30.815Z,15.10
2022-10-15T08:10:30.801Z,15.09
2022-10-15T08:11:30.771Z,15.06
2022-10-15T08:12:30.757Z,15.11
2022-10-15T08:13:30.747Z,15.13
2022-10-15T08:14:30.757Z,15.20
2022-10-15T08:15:30.768Z,15.14
2022-10-15T08:16:30.716Z,15.16
2022-10-15T08:17:30.700Z,15.28
2022-10-15T08:18:30.696Z,15.29
2022-10-15T08:19:30.677Z,15.32
2022-10-15T08:20:30.699Z,15.38
2022-10-15T08:21:30.686Z,15.36
2022-10-15T08:22:30.657Z,15.32
2022-10-15T08:23:30.640Z,15.27
2022-10-15T08:24:30.656Z,15.27
2022-10-15T08:25:30.622Z,15.35
2022-10-15T08:26:30.602Z,15.43
2022-10-15T08:27:30.650Z,15.44
2022-10-15T08:28:30.649Z,15.46
2022-10-15T08:29:30.592Z,15.51
2022-10-15T08:30:30.576Z,15.38
2022-10-15T08:31:30.552Z,15.38
2022-10-15T08:32:30.564Z,15.43
2022-10-15T08:33:30.541Z,15.43
2022-10-15T08:34:30.524Z,15.49
2022-10-15T08:35:30.559Z,15.49
2022-10-15T08:36:30.501Z,15.51
2022-10-15T08:37:30.481Z,15.51
2022-10-15T08:38:30.473Z,15.56
2022-10-15T08:39:30.513Z,15.72
2022-10-15T08:40:30.469Z,15.67
2022-10-15T08:41:30.440Z,15.67
2022-10-15T08:42:30.433Z,15.64
2022-10-15T08:43:30.440Z,15.64
2022-10-15T08:44:30.407Z,15.62
2022-10-15T08:45:30.423Z,15.78
2022-10-15T08:46:30.404Z,15.83
2022-10-15T08:47:30.378Z,15.84
2022-10-15T08:48:30.382Z,15.89
2022-10-15T08:49:30.381Z,15.92
2022-10-15T08:50:30.368Z,16.01
2022-10-15T08:51:30.371Z,16.04
2022-10-15T08:52:30.323Z,16.00
2022-10-15T08:53:30.306Z,15.93
2022-10-15T08:54:30.311Z,16.02
2022-10-15T08:55:30.309Z,16.09
2022-10-15T08:56:30.295Z,15.93
2022-10-15T08:57:30.317Z,16.08
2022-10-15T08:58:30.266Z,16.15
2022-10-15T08:59:30.244Z,16.21
2022-10-15T09:00:30.232Z,16.11
2022-10-15T09:01:30.220Z,16.25
2022-10-15T09:02:30.246Z,16.27
2022-10-15T09:03:30.259Z,16.34
2022-10-15T09:04:30.193Z,16.31
2022-10-15T09:05:30.216Z,16.34
2022-10-15T09:06:30.170Z,16.34
2022-10-15T09:07:30.170Z,16.38
2022-10-15T09:08:30.170Z,16.33
2022-10-15T09:09:30.179Z,16.28
2022-10-15T09:10:30.130Z,16.31
2022-10-15T09:11:30.122Z,16.27
2022-10-15T09:12:30.156Z,16.28
2022-10-15T09:13:30.132Z,16.33
2022-10-15T09:14:30.081Z,16.38
2022-10-15T09:15:30.089Z,16.34
2022-10-15T09:16:30.089Z,16.46
2022-10-15T09:17:30.049Z,16.50
2022-10-15T09:18:30.076Z,16.48
2022-10-15T09:19:30.023Z,16.50
2022-10-15T09:20:30.030Z,16.48
2022-10-15T09:21:30.016Z,16.53
2022-10-15T09:22:29.993Z,16.56
2022-10-15T09:23:30.006Z,16.60
2022-10-15T09:24:29.978Z,16.63
2022-10-15T09:25:31.984Z,16.70
2022-10-15T09:26:29.945Z,16.73
2022-10-15T09:27:29.967Z,16.68
2022-10-15T09:28:30.024Z,16.83
2022-10-15T09:29:29.912Z,16.81
2022-10-15T09:30:29.941Z,16.81
2022-10-15T09:31:29.892Z,16.96
2022-10-15T09:32:29.876Z,16.91
2022-10-15T09:33:29.904Z,16.96
2022-10-15T09:34:29.950Z,16.89
2022-10-15T09:35:29.869Z,16.97
2022-10-15T09:36:29.867Z,17.01
2022-10-15T09:37:29.839Z,17.01
2022-10-15T09:38:29.818Z,17.08
2022-10-15T09:39:29.832Z,17.15
2022-10-15T09:40:29.793Z,17.03
2022-10-15T09:41:29.806Z,17.03
2022-10-15T09:42:29.773Z,17.04
2022-10-15T09:43:29.760Z,17.07
2022-10-15T09:44:29.762Z,17.12
2022-10-15T09:45:29.754Z,17.12
2022-10-15T09:46:29.760Z,17.01
2022-10-15T09:47:29.739Z,17.07
2022-10-15T09:48:29.730Z,16.98
2022-10-15T09:49:33.989Z,17.15
2022-10-15T09:50:30.701Z,17.11
2022-10-15T09:51:29.698Z,17.14
2022-10-15T09:52:29.665Z,17.16
2022-10-15T09:53:29.682Z,17.14
2022-10-15T09:54:29.646Z,17.12
2022-10-15T09:55:29.654Z,17.11
2022-10-15T09:56:29.620Z,17.15
2022-10-15T09:57:29.630Z,17.18
2022-10-15T09:58:29.626Z,17.15
2022-10-15T09:59:29.623Z,17.12
2022-10-15T10:00:29.575Z,17.21
2022-10-15T10:01:29.567Z,17.21
2022-10-15T10:02:30.093Z,17.18
2022-10-15T10:03:29.565Z,17.21
2022-10-15T10:04:29.561Z,17.18
2022-10-15T10:05:29.526Z,17.18
2022-10-15T10:06:29.568Z,17.14
2022-10-15T10:07:29.499Z,17.21
2022-10-15T10:08:29.495Z,17.22
2022-10-15T10:09:29.530Z,17.25
2022-10-15T10:10:29.469Z,17.30
2022-10-15T10:11:29.485Z,17.30
2022-10-15T10:12:29.446Z,17.28
2022-10-15T10:13:29.434Z,17.34
2022-10-15T10:14:29.432Z,17.36
2022-10-15T10:15:29.429Z,17.30
2022-10-15T10:16:29.424Z,17.34
2022-10-15T10:17:29.390Z,17.37
2022-10-15T10:18:29.390Z,17.34
2022-10-15T10:19:29.431Z,17.41
2022-10-15T10:20:29.389Z,17.44
2022-10-15T10:21:29.374Z,17.52
2022-10-15T10:22:29.395Z,17.55
2022-10-15T10:23:29.325Z,17.70
2022-10-15T10:24:29.330Z,17.74
2022-10-15T10:25:29.311Z,17.99
2022-10-15T10:26:29.293Z,18.14
2022-10-15T10:27:29.305Z,18.36
2022-10-15T10:28:29.344Z,18.51
2022-10-15T10:29:36.558Z,18.76
2022-10-15T10:30:30.254Z,18.85
2022-10-15T10:31:29.243Z,19.07
2022-10-15T10:32:29.258Z,19.22
2022-10-15T10:33:29.258Z,19.21
2022-10-15T10:34:29.209Z,19.25
2022-10-15T10:35:29.198Z,19.48
2022-10-15T10:36:29.180Z,19.39
2022-10-15T10:37:29.194Z,19.54
2022-10-15T10:38:29.182Z,19.71
2022-10-15T10:39:29.177Z,19.81
2022-10-15T10:40:29.154Z,19.92
2022-10-15T10:41:29.161Z,19.86
2022-10-15T10:42:29.124Z,20.10
2022-10-15T10:43:29.115Z,20.26
2022-10-15T10:44:29.093Z,20.38
2022-10-15T10:45:29.121Z,20.38
2022-10-15T10:46:29.080Z,20.55
2022-10-15T10:47:29.063Z,20.54
2022-10-15T10:48:29.078Z,20.66
2022-10-15T10:49:29.076Z,20.61
2022-10-15T10:50:29.035Z,20.70
2022-10-15T10:51:29.074Z,20.87
2022-10-15T10:52:29.012Z,21.01
2022-10-15T10:53:29.005Z,20.97
2022-10-15T10:54:29.076Z,20.84
2022-10-15T10:55:29.022Z,20.85
2022-10-15T10:56:28.962Z,20.80
2022-10-15T10:57:28.984Z,20.67
2022-10-15T10:58:28.946Z,20.69
2022-10-15T10:59:28.928Z,20.69
2022-10-15T11:00:28.948Z,20.64
2022-10-15T11:01:28.914Z,20.57
2022-10-15T11:02:28.904Z,20.67
2022-10-15T11:03:28.926Z,20.57
2022-10-15T11:04:28.873Z,20.55
2022-10-15T11:05:28.903Z,20.50
2022-10-15T11:06:28.865Z,20.51
2022-10-15T11:07:28.852Z,20.59
2022-10-15T11:08:28.835Z,20.41
2022-10-15T11:09:28.859Z,20.47
2022-10-15T11:10:28.836Z,20.42
2022-10-15T11:11:28.810Z,20.43
2022-10-15T11:12:28.799Z,20.39
2022-10-15T11:13:31.188Z,20.36
2022-10-15T11:14:28.803Z,20.35
2022-10-15T11:15:28.785Z,20.31
2022-10-15T11:16:28.770Z,20.28
2022-10-15T11:17:28.776Z,20.26
2022-10-15T11:18:28.738Z,20.29
2022-10-15T11:19:59.601Z,20.35
2022-10-15T11:20:45.577Z,20.31
2022-10-15T11:21:29.724Z,20.39
2022-10-15T11:22:28.713Z,20.50
2022-10-15T11:23:28.680Z,20.50
2022-10-15T11:24:33.539Z,20.51
2022-10-15T11:25:29.660Z,20.59
2022-10-15T11:26:34.093Z,20.58
2022-10-15T11:27:29.686Z,20.51
2022-10-15T11:28:28.703Z,20.59
2022-10-15T11:29:28.628Z,20.54
2022-10-15T11:30:28.598Z,20.47
2022-10-15T11:31:28.615Z,20.39
2022-10-15T11:32:42.163Z,20.23
2022-10-15T11:33:29.576Z,20.24
2022-10-15T11:34:28.588Z,20.14
2022-10-15T11:35:48.276Z,20.17
2022-10-15T11:36:29.558Z,20.17
2022-10-15T11:37:28.516Z,20.17
2022-10-15T11:38:28.524Z,20.18
2022-10-15T11:39:28.504Z,20.17
2022-10-15T11:40:28.574Z,20.16
2022-10-15T11:41:28.478Z,20.08
2022-10-15T11:42:28.490Z,20.16
2022-10-15T11:43:28.459Z,20.13
2022-10-15T11:44:28.453Z,20.11
2022-10-15T11:45:28.434Z,19.96
2022-10-15T11:46:28.441Z,19.99
2022-10-15T11:47:28.422Z,19.98
2022-10-15T11:48:28.404Z,19.99
2022-10-15T11:49:28.435Z,19.92
2022-10-15T11:50:28.394Z,19.87
2022-10-15T11:51:28.401Z,19.95
2022-10-15T11:52:28.367Z,19.77
2022-10-15T11:53:28.373Z,19.77
2022-10-15T11:54:28.335Z,19.83
2022-10-15T11:55:28.327Z,19.77
2022-10-15T11:56:28.332Z,19.73
2022-10-15T11:57:28.334Z,19.73
2022-10-15T11:58:28.313Z,19.80
2022-10-15T11:59:28.302Z,19.76
2022-10-15T12:00:28.267Z,19.78
2022-10-15T12:01:28.260Z,19.80
2022-10-15T12:02:28.265Z,19.78
2022-10-15T12:03:28.242Z,19.77
2022-10-15T12:04:30.370Z,19.80
2022-10-15T12:05:28.222Z,19.87
2022-10-15T12:06:28.204Z,19.87
2022-10-15T12:07:28.194Z,19.87
2022-10-15T12:08:28.206Z,19.86
2022-10-15T12:09:28.205Z,19.83
2022-10-15T12:10:28.162Z,19.91
2022-10-15T12:11:28.173Z,19.86
2022-10-15T12:12:28.139Z,19.91
2022-10-15T12:13:28.130Z,19.86
2022-10-15T12:14:28.165Z,19.84
2022-10-15T12:15:28.111Z,19.98
2022-10-15T12:16:28.100Z,19.96
2022-10-15T12:17:28.113Z,20.08
2022-10-15T12:18:28.085Z,20.10
2022-10-15T12:19:28.089Z,20.18
2022-10-15T12:20:28.087Z,20.17
2022-10-15T12:21:28.052Z,20.28
2022-10-15T12:22:32.859Z,20.28
2022-10-15T12:23:29.039Z,20.28
2022-10-15T12:24:28.015Z,20.35
2022-10-15T12:25:28.006Z,20.33
2022-10-15T12:26:27.999Z,20.41
2022-10-15T12:27:28.202Z,20.35
2022-10-15T12:28:28.030Z,20.38
2022-10-15T12:29:27.981Z,20.31
2022-10-15T12:30:27.977Z,20.38
2022-10-15T12:31:27.944Z,20.38
2022-10-15T12:32:27.933Z,20.41
2022-10-15T12:33:27.928Z,20.38
2022-10-15T12:34:27.919Z,20.43
2022-10-15T12:35:27.895Z,20.43
2022-10-15T12:36:27.878Z,20.39
2022-10-15T12:37:27.873Z,20.38
2022-10-15T12:38:27.889Z,20.38
2022-10-15T12:39:53.655Z,20.35
2022-10-15T12:40:28.846Z,20.48
2022-10-15T12:41:27.831Z,20.47
2022-10-15T12:42:27.817Z,20.48
2022-10-15T12:43:27.853Z,20.47
2022-10-15T12:44:27.813Z,20.43
2022-10-15T12:45:27.786Z,20.54
2022-10-15T12:46:27.790Z,20.48
2022-10-15T12:47:27.766Z,20.41
2022-10-15T12:48:27.768Z,20.43
2022-10-15T12:49:27.759Z,20.43
2022-10-15T12:50:27.744Z,20.51
2022-10-15T12:51:27.719Z,20.55
2022-10-15T12:52:27.706Z,20.51
2022-10-15T12:53:30.594Z,20.66
2022-10-15T12:54:28.339Z,20.74
2022-10-15T12:55:27.693Z,20.58
2022-10-15T12:56:27.684Z,20.57
2022-10-15T12:57:27.655Z,20.61
2022-10-15T12:58:27.683Z,20.64
2022-10-15T12:59:27.638Z,20.54
2022-10-15T13:00:27.645Z,20.55
2022-10-15T13:01:27.716Z,20.59
2022-10-15T13:02:27.620Z,20.54
2022-10-15T13:03:27.600Z,20.50
2022-10-15T13:04:28.596Z,20.42
2022-10-15T13:05:27.580Z,20.54
2022-10-15T13:06:27.579Z,20.52
2022-10-15T13:07:27.564Z,20.61
2022-10-15T13:08:28.665Z,20.69
2022-10-15T13:09:27.527Z,20.66
2022-10-15T13:10:27.511Z,20.77
2022-10-15T13:11:27.517Z,20.66
2022-10-15T13:12:27.926Z,20.67
2022-10-15T13:13:27.485Z,20.79
2022-10-15T13:14:27.479Z,20.76
2022-10-15T13:15:27.465Z,20.70
2022-10-15T13:16:27.450Z,20.79
2022-10-15T13:17:27.473Z,20.74
2022-10-15T13:18:27.455Z,20.62
2022-10-15T13:19:27.546Z,20.72
2022-10-15T13:20:27.413Z,20.61
2022-10-15T13:21:27.394Z,20.62
2022-10-15T13:22:27.678Z,20.64
2022-10-15T13:23:31.251Z,20.64
2022-10-15T13:24:27.364Z,20.64
2022-10-15T13:25:27.378Z,20.64
2022-10-15T13:26:27.355Z,20.66
2022-10-15T13:27:27.337Z,20.62
2022-10-15T13:28:27.351Z,20.62
2022-10-15T13:29:27.306Z,20.67
2022-10-15T13:30:27.296Z,20.76
2022-10-15T13:31:30.113Z,20.64
2022-10-15T13:32:27.596Z,20.67
2022-10-15T13:33:27.269Z,20.61
2022-10-15T13:34:27.266Z,20.66
2022-10-15T13:35:27.242Z,20.64
2022-10-15T13:36:27.233Z,20.66
2022-10-15T13:37:27.235Z,20.73
2022-10-15T13:38:27.243Z,20.67
2022-10-15T13:39:27.252Z,20.73
2022-10-15T13:40:27.195Z,20.69
2022-10-15T13:41:27.175Z,20.72
2022-10-15T13:42:27.578Z,20.73
2022-10-15T13:43:27.163Z,20.66
2022-10-15T13:44:27.160Z,20.58
2022-10-15T13:45:27.141Z,20.64
2022-10-15T13:46:27.126Z,20.70
2022-10-15T13:47:27.114Z,20.61
2022-10-15T13:48:27.104Z,20.64
2022-10-15T13:49:28.918Z,20.51
2022-10-15T13:50:27.111Z,20.54
2022-10-15T13:51:27.066Z,20.51
2022-10-15T13:52:27.311Z,20.55
2022-10-15T13:53:27.057Z,20.52
2022-10-15T13:54:27.039Z,20.58
2022-10-15T13:55:27.057Z,20.62
2022-10-15T13:56:27.009Z,20.42
2022-10-15T13:57:27.002Z,20.43
2022-10-15T13:58:27.734Z,20.50
2022-10-15T13:59:26.989Z,20.39
2022-10-15T14:00:27.015Z,20.47
2022-10-15T14:01:27.016Z,20.51
2022-10-15T14:02:27.000Z,20.54
2022-10-15T14:03:26.949Z,20.38
2022-10-15T14:04:26.925Z,20.50
2022-10-15T14:05:26.921Z,20.50
2022-10-15T14:06:26.941Z,20.47
2022-10-15T14:07:27.661Z,20.41
2022-10-15T14:08:26.884Z,20.47
2022-10-15T14:09:26.911Z,20.47
2022-10-15T14:10:26.855Z,20.58
2022-10-15T14:11:26.852Z,20.58
2022-10-15T14:12:26.841Z,20.39
2022-10-15T14:13:26.837Z,20.51
2022-10-15T14:14:26.836Z,20.55
2022-10-15T14:15:26.799Z,20.57
2022-10-15T14:16:26.789Z,20.47
2022-10-15T14:17:27.210Z,20.41
2022-10-15T14:18:26.786Z,20.48
2022-10-15T14:19:26.768Z,20.43
2022-10-15T14:20:27.779Z,20.42
2022-10-15T14:21:26.741Z,20.43
2022-10-15T14:22:26.806Z,20.51
2022-10-15T14:23:26.714Z,20.41
2022-10-15T14:24:26.711Z,20.41
2022-10-15T14:25:26.708Z,20.41
2022-10-15T14:26:26.680Z,20.36
2022-10-15T14:27:26.960Z,20.47
2022-10-15T14:28:26.712Z,20.39
2022-10-15T14:29:26.651Z,20.32
2022-10-15T14:30:26.658Z,20.41
2022-10-15T14:31:26.643Z,20.41
2022-10-15T14:32:26.618Z,20.41
2022-10-15T14:33:26.625Z,20.39
2022-10-15T14:34:26.607Z,20.41
2022-10-15T14:35:26.594Z,20.35
2022-10-15T14:36:26.575Z,20.35
2022-10-15T14:37:26.848Z,20.36
2022-10-15T14:38:26.589Z,20.35
2022-10-15T14:39:26.546Z,20.41
2022-10-15T14:40:26.534Z,20.41
2022-10-15T14:41:26.560Z,20.41
2022-10-15T14:42:26.509Z,20.24
2022-10-15T14:43:26.511Z,20.32
2022-10-15T14:44:26.487Z,20.29
2022-10-15T14:45:26.500Z,20.35
2022-10-15T14:46:26.477Z,20.23
2022-10-15T14:47:27.015Z,20.29
2022-10-15T14:48:26.455Z,20.31
2022-10-15T14:49:26.454Z,20.18
2022-10-15T14:50:26.450Z,20.21
2022-10-15T14:51:26.530Z,20.21
2022-10-15T14:52:26.478Z,20.26
2022-10-15T14:53:26.426Z,20.23
2022-10-15T14:54:26.406Z,20.18
2022-10-15T14:55:26.391Z,20.17
2022-10-15T14:56:26.441Z,20.14
2022-10-15T14:57:26.784Z,20.06
2022-10-15T14:58:26.336Z,20.17
2022-10-15T14:59:26.345Z,20.21
2022-10-15T15:00:26.328Z,20.08
2022-10-15T15:01:26.375Z,20.13
2022-10-15T15:02:26.847Z,20.06
2022-10-15T15:03:26.337Z,20.03
2022-10-15T15:04:26.278Z,20.03
2022-10-15T15:05:26.284Z,19.99
2022-10-15T15:06:26.303Z,19.95
2022-10-15T15:07:26.259Z,19.94
2022-10-15T15:08:26.233Z,19.96
2022-10-15T15:09:26.222Z,19.96
2022-10-15T15:10:26.240Z,19.87
2022-10-15T15:11:26.219Z,19.83
2022-10-15T15:12:27.835Z,19.83
2022-10-15T15:13:26.248Z,19.98
2022-10-15T15:14:26.165Z,19.87
2022-10-15T15:15:26.171Z,19.87
2022-10-15T15:16:26.239Z,19.87
2022-10-15T15:17:26.135Z,19.86
2022-10-15T15:18:26.158Z,19.91
2022-10-15T15:19:26.132Z,19.87
2022-10-15T15:20:26.110Z,19.88
2022-10-15T15:21:26.092Z,19.88
2022-10-15T15:22:26.419Z,19.87
2022-10-15T15:23:26.185Z,19.87
2022-10-15T15:24:26.194Z,19.81
2022-10-15T15:25:26.083Z,19.84
2022-10-15T15:26:27.040Z,19.81
2022-10-15T15:27:26.219Z,19.84
2022-10-15T15:28:26.138Z,19.77
2022-10-15T15:30:26.572Z,19.81
2022-10-15T15:31:26.087Z,19.69
2022-10-15T15:32:26.445Z,19.69
2022-10-15T15:33:25.966Z,19.74
2022-10-15T15:34:25.964Z,19.66
2022-10-15T15:35:26.068Z,19.76
2022-10-15T15:36:26.021Z,19.65
2022-10-15T15:37:26.387Z,19.63
2022-10-15T15:38:30.559Z,19.59
2022-10-15T15:39:26.143Z,19.69
2022-10-15T15:40:26.059Z,19.59
2022-10-15T15:41:25.885Z,19.65
2022-10-15T15:42:26.109Z,19.51
2022-10-15T15:43:25.854Z,19.55
2022-10-15T15:44:26.514Z,19.50
2022-10-15T15:45:25.827Z,19.55
2022-10-15T15:46:25.819Z,19.43
2022-10-15T15:47:25.862Z,19.40
2022-10-15T15:48:25.796Z,19.41
2022-10-15T15:49:25.816Z,19.39
2022-10-15T15:50:25.802Z,19.32
2022-10-15T15:51:25.762Z,19.36
2022-10-15T15:52:26.056Z,19.41
2022-10-15T15:53:25.760Z,19.36
2022-10-15T15:54:25.756Z,19.36
2022-10-15T15:55:25.738Z,19.32
2022-10-15T15:56:25.704Z,19.26
2022-10-15T15:57:25.949Z,19.19
2022-10-15T15:58:25.705Z,19.28
2022-10-15T15:59:25.700Z,19.23
2022-10-15T16:00:25.664Z,19.28
2022-10-15T16:01:25.731Z,19.26
2022-10-15T16:02:25.643Z,19.25
2022-10-15T16:03:25.628Z,19.18
2022-10-15T16:04:25.621Z,19.13
2022-10-15T16:05:25.628Z,19.19
2022-10-15T16:06:25.594Z,19.14
2022-10-15T16:07:28.383Z,19.16
2022-10-15T16:08:25.581Z,19.10
2022-10-15T16:09:25.585Z,19.08
2022-10-15T16:10:25.568Z,19.10
2022-10-15T16:11:25.544Z,19.08
2022-10-15T16:12:25.545Z,19.06
2022-10-15T16:13:25.522Z,19.14
2022-10-15T16:14:25.532Z,19.06
2022-10-15T16:15:25.556Z,19.07
2022-10-15T16:16:25.496Z,19.13
2022-10-15T16:17:25.719Z,19.10
2022-10-15T16:18:25.488Z,19.08
2022-10-15T16:19:25.474Z,19.11
2022-10-15T16:20:25.445Z,19.10
2022-10-15T16:21:25.454Z,19.08
2022-10-15T16:22:25.421Z,19.10
2022-10-15T16:23:25.435Z,19.08
2022-10-15T16:24:25.404Z,19.07
2022-10-15T16:25:27.826Z,19.08
2022-10-15T16:26:25.398Z,19.11
2022-10-15T16:27:25.708Z,19.00
2022-10-15T16:28:25.446Z,18.99
2022-10-15T16:29:25.343Z,18.99
2022-10-15T16:30:25.353Z,18.84
2022-10-15T16:31:29.575Z,18.88
2022-10-15T16:32:26.338Z,18.78
2022-10-15T16:33:25.298Z,18.82
2022-10-15T16:34:25.291Z,18.65
2022-10-15T16:35:25.285Z,18.54
2022-10-15T16:36:25.271Z,18.60
2022-10-15T16:37:25.683Z,18.50
2022-10-15T16:38:25.267Z,18.44
2022-10-15T16:39:25.241Z,18.41
2022-10-15T16:40:25.242Z,18.42
2022-10-15T16:41:25.212Z,18.26
2022-10-15T16:42:25.215Z,18.14
2022-10-15T16:43:25.190Z,18.15
2022-10-15T16:44:25.190Z,18.00
2022-10-15T16:45:25.167Z,18.02
2022-10-15T16:46:25.277Z,17.97
2022-10-15T16:47:25.634Z,17.99
2022-10-15T16:48:25.138Z,18.03
2022-10-15T16:49:25.131Z,18.00
2022-10-15T16:50:25.124Z,17.95
2022-10-15T16:51:25.149Z,17.89
2022-10-15T16:52:25.353Z,17.86
2022-10-15T16:53:25.080Z,17.95
2022-10-15T16:54:25.114Z,17.78
2022-10-15T16:55:25.060Z,17.77
2022-10-15T16:56:25.069Z,17.86
2022-10-15T16:57:25.070Z,17.90
2022-10-15T16:58:25.025Z,17.81
2022-10-15T16:59:25.015Z,17.90
2022-10-15T17:00:25.038Z,17.84
2022-10-15T17:01:25.024Z,17.87
2022-10-15T17:02:25.426Z,17.82
2022-10-15T17:03:24.985Z,17.75
2022-10-15T17:04:24.972Z,17.86
2022-10-15T17:05:24.969Z,17.82
2022-10-15T17:06:24.944Z,17.75
2022-10-15T17:07:25.251Z,17.75
2022-10-15T17:08:26.850Z,17.74
2022-10-15T17:09:24.940Z,17.70
2022-10-15T17:10:24.912Z,17.74
2022-10-15T17:11:24.886Z,17.71
2022-10-15T17:12:25.171Z,17.58
2022-10-15T17:13:24.869Z,17.52
2022-10-15T17:14:24.879Z,17.49
2022-10-15T17:15:24.880Z,17.51
2022-10-15T17:16:24.854Z,17.46
2022-10-15T17:17:24.832Z,17.52
2022-10-15T17:18:24.851Z,17.52
2022-10-15T17:19:27.700Z,17.55
2022-10-15T17:20:25.801Z,17.52
2022-10-15T17:21:24.781Z,17.59
2022-10-15T17:22:25.211Z,17.46
2022-10-15T17:23:24.758Z,17.54
2022-10-15T17:24:24.745Z,17.46